sensor_id;sensor_type;location;lat;lon;timestamp;P1;durP1;ratioP1;P2;durP2;ratioP2
63699;SDS011;49845;47.130;142.766;2023-07-20T00:00:01;11.97;;;7.10;;
63699;SDS011;49845;47.130;142.766;2023-07-20T00:02:49;13.18;;;7.38;;
63699;SDS011;49845;47.130;142.766;2023-07-20T00:05:23;17.60;;;6.43;;
63699;SDS011;49845;47.130;142.766;2023-07-20T00:07:54;13.30;;;7.17;;
63699;SDS011;49845;47.130;142.766;2023-07-20T00:10:24;14.40;;;6.70;;
63699;SDS011;49845;47.130;142.766;2023-07-20T00:12:55;13.73;;;6.07;;
63699;SDS011;49845;47.130;142.766;2023-07-20T00:15:27;10.10;;;6.70;;
63699;SDS011;49845;47.130;142.766;2023-07-20T00:17:57;11.30;;;6.97;;
63699;SDS011;49845;47.130;142.766;2023-07-20T00:20:29;10.73;;;6.60;;
63699;SDS011;49845;47.130;142.766;2023-07-20T00:22:59;14.97;;;6.17;;
63699;SDS011;49845;47.130;142.766;2023-07-20T00:25:30;20.57;;;6.67;;
63699;SDS011;49845;47.130;142.766;2023-07-20T00:28:01;14.37;;;6.93;;
63699;SDS011;49845;47.130;142.766;2023-07-20T00:30:33;15.33;;;6.73;;
63699;SDS011;49845;47.130;142.766;2023-07-20T00:33:03;13.87;;;7.27;;
63699;SDS011;49845;47.130;142.766;2023-07-20T00:35:34;16.40;;;6.17;;
63699;SDS011;49845;47.130;142.766;2023-07-20T00:38:05;15.63;;;6.67;;
63699;SDS011;49845;47.130;142.766;2023-07-20T00:40:36;16.07;;;6.93;;
63699;SDS011;49845;47.130;142.766;2023-07-20T00:43:06;13.53;;;7.07;;
63699;SDS011;49845;47.130;142.766;2023-07-20T00:45:40;14.73;;;7.07;;
63699;SDS011;49845;47.130;142.766;2023-07-20T00:48:10;15.83;;;6.60;;
63699;SDS011;49845;47.130;142.766;2023-07-20T00:50:42;12.93;;;6.43;;
63699;SDS011;49845;47.130;142.766;2023-07-20T00:53:13;11.90;;;6.30;;
63699;SDS011;49845;47.130;142.766;2023-07-20T00:55:44;19.43;;;6.60;;
63699;SDS011;49845;47.130;142.766;2023-07-20T00:58:15;14.60;;;5.87;;
63699;SDS011;49845;47.130;142.766;2023-07-20T01:00:47;17.20;;;5.70;;
63699;SDS011;49845;47.130;142.766;2023-07-20T01:03:18;18.43;;;7.03;;
63699;SDS011;49845;47.130;142.766;2023-07-20T01:05:51;19.13;;;6.37;;
63699;SDS011;49845;47.130;142.766;2023-07-20T01:08:27;11.90;;;5.63;;
63699;SDS011;49845;47.130;142.766;2023-07-20T01:11:05;12.13;;;5.60;;
63699;SDS011;49845;47.130;142.766;2023-07-20T01:13:39;11.53;;;5.50;;
63699;SDS011;49845;47.130;142.766;2023-07-20T01:16:12;11.20;;;5.40;;
63699;SDS011;49845;47.130;142.766;2023-07-20T01:18:43;14.27;;;6.00;;
63699;SDS011;49845;47.130;142.766;2023-07-20T01:21:17;14.53;;;5.87;;
63699;SDS011;49845;47.130;142.766;2023-07-20T01:27:27;16.43;;;6.43;;
63699;SDS011;49845;47.130;142.766;2023-07-20T01:30:25;13.40;;;5.40;;
63699;SDS011;49845;47.130;142.766;2023-07-20T01:33:17;11.20;;;5.40;;
63699;SDS011;49845;47.130;142.766;2023-07-20T01:35:52;17.83;;;6.37;;
63699;SDS011;49845;47.130;142.766;2023-07-20T01:38:24;14.03;;;6.20;;
63699;SDS011;49845;47.130;142.766;2023-07-20T01:40:55;19.83;;;6.80;;
63699;SDS011;49845;47.130;142.766;2023-07-20T01:43:27;14.53;;;6.30;;
63699;SDS011;49845;47.130;142.766;2023-07-20T01:45:58;15.20;;;6.17;;
63699;SDS011;49845;47.130;142.766;2023-07-20T01:48:30;13.87;;;5.43;;
63699;SDS011;49845;47.130;142.766;2023-07-20T01:51:00;13.03;;;6.00;;
63699;SDS011;49845;47.130;142.766;2023-07-20T01:53:31;18.80;;;5.50;;
63699;SDS011;49845;47.130;142.766;2023-07-20T01:56:02;13.40;;;4.87;;
63699;SDS011;49845;47.130;142.766;2023-07-20T01:58:32;11.67;;;5.50;;
63699;SDS011;49845;47.130;142.766;2023-07-20T02:01:03;10.37;;;5.20;;
63699;SDS011;49845;47.130;142.766;2023-07-20T02:03:35;18.77;;;5.23;;
63699;SDS011;49845;47.130;142.766;2023-07-20T02:06:06;18.27;;;5.03;;
63699;SDS011;49845;47.130;142.766;2023-07-20T02:08:36;17.40;;;4.90;;
63699;SDS011;49845;47.130;142.766;2023-07-20T02:11:07;19.43;;;4.77;;
63699;SDS011;49845;47.130;142.766;2023-07-20T02:13:37;16.07;;;4.13;;
63699;SDS011;49845;47.130;142.766;2023-07-20T02:16:08;16.53;;;4.53;;
63699;SDS011;49845;47.130;142.766;2023-07-20T02:18:40;13.30;;;4.07;;
63699;SDS011;49845;47.130;142.766;2023-07-20T02:21:11;14.83;;;3.73;;
63699;SDS011;49845;47.130;142.766;2023-07-20T02:23:41;7.07;;;3.60;;
63699;SDS011;49845;47.130;142.766;2023-07-20T02:26:12;13.47;;;3.90;;
63699;SDS011;49845;47.130;142.766;2023-07-20T02:28:42;10.13;;;3.77;;
63699;SDS011;49845;47.130;142.766;2023-07-20T02:31:13;14.20;;;4.13;;
63699;SDS011;49845;47.130;142.766;2023-07-20T02:33:45;23.87;;;4.00;;
63699;SDS011;49845;47.130;142.766;2023-07-20T02:36:16;9.90;;;3.53;;
63699;SDS011;49845;47.130;142.766;2023-07-20T02:38:47;13.13;;;3.63;;
63699;SDS011;49845;47.130;142.766;2023-07-20T02:41:18;11.30;;;3.90;;
63699;SDS011;49845;47.130;142.766;2023-07-20T02:43:48;8.10;;;3.77;;
63699;SDS011;49845;47.130;142.766;2023-07-20T02:46:19;7.40;;;3.87;;
63699;SDS011;49845;47.130;142.766;2023-07-20T02:48:51;15.47;;;4.00;;
63699;SDS011;49845;47.130;142.766;2023-07-20T02:51:22;14.53;;;3.97;;
63699;SDS011;49845;47.130;142.766;2023-07-20T02:53:53;17.03;;;4.17;;
63699;SDS011;49845;47.130;142.766;2023-07-20T02:56:23;15.33;;;3.87;;
63699;SDS011;49845;47.130;142.766;2023-07-20T02:58:54;8.40;;;3.60;;
63699;SDS011;49845;47.130;142.766;2023-07-20T03:01:24;11.33;;;3.73;;
63699;SDS011;49845;47.130;142.766;2023-07-20T03:03:58;14.47;;;3.90;;
63699;SDS011;49845;47.130;142.766;2023-07-20T03:06:29;10.93;;;4.00;;
63699;SDS011;49845;47.130;142.766;2023-07-20T03:09:03;14.03;;;3.77;;
63699;SDS011;49845;47.130;142.766;2023-07-20T03:11:35;11.93;;;3.60;;
63699;SDS011;49845;47.130;142.766;2023-07-20T03:14:05;6.97;;;3.53;;
63699;SDS011;49845;47.130;142.766;2023-07-20T03:16:36;16.63;;;4.03;;
63699;SDS011;49845;47.130;142.766;2023-07-20T03:19:08;23.30;;;3.50;;
63699;SDS011;49845;47.130;142.766;2023-07-20T03:21:39;13.30;;;3.47;;
63699;SDS011;49845;47.130;142.766;2023-07-20T03:24:10;9.37;;;3.30;;
63699;SDS011;49845;47.130;142.766;2023-07-20T03:26:40;11.83;;;3.57;;
63699;SDS011;49845;47.130;142.766;2023-07-20T03:29:10;11.50;;;3.40;;
63699;SDS011;49845;47.130;142.766;2023-07-20T03:31:41;5.83;;;2.60;;
63699;SDS011;49845;47.130;142.766;2023-07-20T03:34:13;9.70;;;2.90;;
63699;SDS011;49845;47.130;142.766;2023-07-20T03:36:44;3.53;;;2.23;;
63699;SDS011;49845;47.130;142.766;2023-07-20T03:39:14;7.73;;;3.10;;
63699;SDS011;49845;47.130;142.766;2023-07-20T03:41:45;10.17;;;2.70;;
63699;SDS011;49845;47.130;142.766;2023-07-20T03:44:15;10.10;;;2.70;;
63699;SDS011;49845;47.130;142.766;2023-07-20T03:46:46;16.90;;;2.73;;
63699;SDS011;49845;47.130;142.766;2023-07-20T03:49:18;13.03;;;2.93;;
63699;SDS011;49845;47.130;142.766;2023-07-20T03:51:48;10.13;;;2.73;;
63699;SDS011;49845;47.130;142.766;2023-07-20T03:54:19;7.77;;;2.50;;
63699;SDS011;49845;47.130;142.766;2023-07-20T03:56:49;7.10;;;2.43;;
63699;SDS011;49845;47.130;142.766;2023-07-20T03:59:20;11.00;;;2.80;;
63699;SDS011;49845;47.130;142.766;2023-07-20T04:01:50;8.27;;;2.60;;
63699;SDS011;49845;47.130;142.766;2023-07-20T04:04:23;14.93;;;3.43;;
63699;SDS011;49845;47.130;142.766;2023-07-20T04:06:53;9.50;;;2.70;;
63699;SDS011;49845;47.130;142.766;2023-07-20T04:09:23;10.43;;;2.80;;
63699;SDS011;49845;47.130;142.766;2023-07-20T04:11:54;8.97;;;2.70;;
63699;SDS011;49845;47.130;142.766;2023-07-20T04:14:24;12.73;;;3.30;;
63699;SDS011;49845;47.130;142.766;2023-07-20T04:16:55;11.47;;;3.43;;
63699;SDS011;49845;47.130;142.766;2023-07-20T04:19:28;7.93;;;3.30;;
63699;SDS011;49845;47.130;142.766;2023-07-20T04:21:58;17.87;;;3.40;;
63699;SDS011;49845;47.130;142.766;2023-07-20T04:24:30;13.60;;;3.63;;
63699;SDS011;49845;47.130;142.766;2023-07-20T04:27:00;12.53;;;2.80;;
63699;SDS011;49845;47.130;142.766;2023-07-20T04:29:30;13.63;;;3.23;;
63699;SDS011;49845;47.130;142.766;2023-07-20T04:32:01;7.87;;;3.00;;
63699;SDS011;49845;47.130;142.766;2023-07-20T04:34:33;10.37;;;3.10;;
63699;SDS011;49845;47.130;142.766;2023-07-20T04:37:04;16.43;;;3.10;;
63699;SDS011;49845;47.130;142.766;2023-07-20T04:39:35;11.43;;;2.93;;
63699;SDS011;49845;47.130;142.766;2023-07-20T04:42:05;10.53;;;3.40;;
63699;SDS011;49845;47.130;142.766;2023-07-20T04:44:36;11.30;;;3.67;;
63699;SDS011;49845;47.130;142.766;2023-07-20T04:47:06;11.70;;;3.30;;
63699;SDS011;49845;47.130;142.766;2023-07-20T04:49:39;13.53;;;3.10;;
63699;SDS011;49845;47.130;142.766;2023-07-20T04:52:09;15.70;;;3.47;;
63699;SDS011;49845;47.130;142.766;2023-07-20T04:54:40;13.87;;;3.47;;
63699;SDS011;49845;47.130;142.766;2023-07-20T04:57:11;15.23;;;3.00;;
63699;SDS011;49845;47.130;142.766;2023-07-20T04:59:42;16.37;;;3.47;;
63699;SDS011;49845;47.130;142.766;2023-07-20T05:02:12;11.20;;;3.40;;
63699;SDS011;49845;47.130;142.766;2023-07-20T05:04:45;11.20;;;3.60;;
63699;SDS011;49845;47.130;142.766;2023-07-20T05:07:15;16.17;;;3.97;;
63699;SDS011;49845;47.130;142.766;2023-07-20T05:09:46;18.80;;;3.97;;
63699;SDS011;49845;47.130;142.766;2023-07-20T05:12:17;10.90;;;3.13;;
63699;SDS011;49845;47.130;142.766;2023-07-20T05:14:58;12.20;;;3.50;;
63699;SDS011;49845;47.130;142.766;2023-07-20T05:17:47;10.73;;;3.73;;
63699;SDS011;49845;47.130;142.766;2023-07-20T05:20:31;11.07;;;3.13;;
63699;SDS011;49845;47.130;142.766;2023-07-20T05:23:02;11.13;;;3.50;;
63699;SDS011;49845;47.130;142.766;2023-07-20T05:25:33;13.57;;;3.57;;
63699;SDS011;49845;47.130;142.766;2023-07-20T05:28:04;15.60;;;3.77;;
63699;SDS011;49845;47.130;142.766;2023-07-20T05:30:34;11.17;;;3.53;;
63699;SDS011;49845;47.130;142.766;2023-07-20T05:33:05;10.17;;;3.80;;
63699;SDS011;49845;47.130;142.766;2023-07-20T05:35:37;17.53;;;3.73;;
63699;SDS011;49845;47.130;142.766;2023-07-20T05:38:08;14.50;;;3.80;;
63699;SDS011;49845;47.130;142.766;2023-07-20T05:40:39;14.40;;;4.10;;
63699;SDS011;49845;47.130;142.766;2023-07-20T05:43:11;10.37;;;3.87;;
63699;SDS011;49845;47.130;142.766;2023-07-20T05:45:41;11.03;;;3.57;;
63699;SDS011;49845;47.130;142.766;2023-07-20T05:48:15;9.70;;;3.70;;
63699;SDS011;49845;47.130;142.766;2023-07-20T05:50:47;10.00;;;3.83;;
63699;SDS011;49845;47.130;142.766;2023-07-20T05:53:17;12.77;;;4.17;;
63699;SDS011;49845;47.130;142.766;2023-07-20T05:55:51;20.03;;;4.83;;
63699;SDS011;49845;47.130;142.766;2023-07-20T05:58:23;13.47;;;3.70;;
63699;SDS011;49845;47.130;142.766;2023-07-20T06:00:53;12.10;;;3.53;;
63699;SDS011;49845;47.130;142.766;2023-07-20T06:03:24;8.43;;;3.83;;
63699;SDS011;49845;47.130;142.766;2023-07-20T06:05:59;14.43;;;5.03;;
63699;SDS011;49845;47.130;142.766;2023-07-20T06:08:31;13.87;;;3.63;;
63699;SDS011;49845;47.130;142.766;2023-07-20T06:11:02;7.60;;;3.83;;
63699;SDS011;49845;47.130;142.766;2023-07-20T06:13:32;7.60;;;3.83;;
63699;SDS011;49845;47.130;142.766;2023-07-20T06:16:03;13.73;;;3.90;;
63699;SDS011;49845;47.130;142.766;2023-07-20T06:18:34;13.13;;;3.87;;
63699;SDS011;49845;47.130;142.766;2023-07-20T06:21:06;12.43;;;4.10;;
63699;SDS011;49845;47.130;142.766;2023-07-20T06:23:37;13.57;;;3.23;;
63699;SDS011;49845;47.130;142.766;2023-07-20T06:26:07;8.50;;;3.00;;
63699;SDS011;49845;47.130;142.766;2023-07-20T06:28:38;11.40;;;3.07;;
63699;SDS011;49845;47.130;142.766;2023-07-20T06:31:08;12.47;;;3.10;;
63699;SDS011;49845;47.130;142.766;2023-07-20T06:33:39;14.87;;;3.60;;
63699;SDS011;49845;47.130;142.766;2023-07-20T06:36:11;9.77;;;3.47;;
63699;SDS011;49845;47.130;142.766;2023-07-20T06:38:42;16.30;;;2.67;;
63699;SDS011;49845;47.130;142.766;2023-07-20T06:41:32;10.23;;;2.90;;
63699;SDS011;49845;47.130;142.766;2023-07-20T06:44:05;15.77;;;3.17;;
63699;SDS011;49845;47.130;142.766;2023-07-20T06:46:36;13.40;;;3.60;;
63699;SDS011;49845;47.130;142.766;2023-07-20T06:49:06;20.50;;;3.23;;
63699;SDS011;49845;47.130;142.766;2023-07-20T06:51:41;9.40;;;2.70;;
63699;SDS011;49845;47.130;142.766;2023-07-20T06:54:12;16.30;;;2.60;;
63699;SDS011;49845;47.130;142.766;2023-07-20T06:56:49;10.03;;;2.60;;
63699;SDS011;49845;47.130;142.766;2023-07-20T06:59:23;10.77;;;2.33;;
63699;SDS011;49845;47.130;142.766;2023-07-20T07:01:54;11.10;;;2.20;;
63699;SDS011;49845;47.130;142.766;2023-07-20T07:04:24;11.77;;;2.10;;
63699;SDS011;49845;47.130;142.766;2023-07-20T07:06:57;8.83;;;2.30;;
63699;SDS011;49845;47.130;142.766;2023-07-20T07:09:27;9.10;;;1.93;;
63699;SDS011;49845;47.130;142.766;2023-07-20T07:11:58;15.50;;;2.70;;
63699;SDS011;49845;47.130;142.766;2023-07-20T07:14:29;12.07;;;2.13;;
63699;SDS011;49845;47.130;142.766;2023-07-20T07:17:00;11.73;;;2.50;;
63699;SDS011;49845;47.130;142.766;2023-07-20T07:19:31;12.17;;;3.07;;
63699;SDS011;49845;47.130;142.766;2023-07-20T07:22:04;11.27;;;1.97;;
63699;SDS011;49845;47.130;142.766;2023-07-20T07:24:35;9.87;;;2.53;;
63699;SDS011;49845;47.130;142.766;2023-07-20T07:27:05;9.67;;;2.33;;
63699;SDS011;49845;47.130;142.766;2023-07-20T07:29:36;8.83;;;1.93;;
63699;SDS011;49845;47.130;142.766;2023-07-20T07:32:07;12.27;;;2.40;;
63699;SDS011;49845;47.130;142.766;2023-07-20T07:34:38;12.03;;;2.10;;
63699;SDS011;49845;47.130;142.766;2023-07-20T07:37:10;10.23;;;2.53;;
63699;SDS011;49845;47.130;142.766;2023-07-20T07:39:40;14.07;;;2.30;;
63699;SDS011;49845;47.130;142.766;2023-07-20T07:42:11;6.27;;;1.90;;
63699;SDS011;49845;47.130;142.766;2023-07-20T07:44:41;8.07;;;2.30;;
63699;SDS011;49845;47.130;142.766;2023-07-20T07:47:12;23.23;;;2.23;;
63699;SDS011;49845;47.130;142.766;2023-07-20T07:49:43;8.50;;;2.17;;
63699;SDS011;49845;47.130;142.766;2023-07-20T07:52:15;11.73;;;3.00;;
63699;SDS011;49845;47.130;142.766;2023-07-20T07:54:46;10.43;;;2.20;;
63699;SDS011;49845;47.130;142.766;2023-07-20T07:57:16;5.77;;;2.27;;
63699;SDS011;49845;47.130;142.766;2023-07-20T07:59:47;4.70;;;2.50;;
63699;SDS011;49845;47.130;142.766;2023-07-20T08:02:18;8.47;;;2.33;;
63699;SDS011;49845;47.130;142.766;2023-07-20T08:04:49;12.43;;;2.43;;
63699;SDS011;49845;47.130;142.766;2023-07-20T08:07:22;5.60;;;2.60;;
63699;SDS011;49845;47.130;142.766;2023-07-20T08:09:52;8.47;;;2.63;;
63699;SDS011;49845;47.130;142.766;2023-07-20T08:12:23;9.37;;;2.43;;
63699;SDS011;49845;47.130;142.766;2023-07-20T08:14:53;6.17;;;2.50;;
63699;SDS011;49845;47.130;142.766;2023-07-20T08:17:24;8.03;;;2.30;;
63699;SDS011;49845;47.130;142.766;2023-07-20T08:19:55;9.43;;;2.30;;
63699;SDS011;49845;47.130;142.766;2023-07-20T08:22:27;15.00;;;2.93;;
63699;SDS011;49845;47.130;142.766;2023-07-20T08:24:58;19.90;;;3.03;;
63699;SDS011;49845;47.130;142.766;2023-07-20T08:27:28;10.30;;;1.97;;
63699;SDS011;49845;47.130;142.766;2023-07-20T08:29:59;7.13;;;2.00;;
63699;SDS011;49845;47.130;142.766;2023-07-20T08:32:30;2.40;;;1.50;;
63699;SDS011;49845;47.130;142.766;2023-07-20T08:35:01;6.47;;;1.87;;
63699;SDS011;49845;47.130;142.766;2023-07-20T08:37:33;11.73;;;2.90;;
63699;SDS011;49845;47.130;142.766;2023-07-20T08:40:04;7.87;;;1.70;;
63699;SDS011;49845;47.130;142.766;2023-07-20T08:42:37;6.93;;;2.60;;
63699;SDS011;49845;47.130;142.766;2023-07-20T08:45:09;7.63;;;2.27;;
63699;SDS011;49845;47.130;142.766;2023-07-20T08:47:42;10.77;;;2.47;;
63699;SDS011;49845;47.130;142.766;2023-07-20T08:50:14;5.00;;;1.90;;
63699;SDS011;49845;47.130;142.766;2023-07-20T08:52:48;4.37;;;2.10;;
63699;SDS011;49845;47.130;142.766;2023-07-20T08:55:21;9.73;;;2.20;;
63699;SDS011;49845;47.130;142.766;2023-07-20T08:57:54;6.10;;;2.40;;
63699;SDS011;49845;47.130;142.766;2023-07-20T09:00:25;7.03;;;2.53;;
63699;SDS011;49845;47.130;142.766;2023-07-20T09:03:00;8.63;;;2.73;;
63699;SDS011;49845;47.130;142.766;2023-07-20T09:05:33;9.07;;;2.20;;
63699;SDS011;49845;47.130;142.766;2023-07-20T09:08:09;6.83;;;2.60;;
63699;SDS011;49845;47.130;142.766;2023-07-20T09:10:50;6.50;;;2.30;;
63699;SDS011;49845;47.130;142.766;2023-07-20T09:13:42;7.68;;;2.75;;
63699;SDS011;49845;47.130;142.766;2023-07-20T09:16:35;7.60;;;2.43;;
63699;SDS011;49845;47.130;142.766;2023-07-20T09:19:20;8.60;;;2.60;;
63699;SDS011;49845;47.130;142.766;2023-07-20T09:21:59;4.53;;;2.57;;
63699;SDS011;49845;47.130;142.766;2023-07-20T09:24:36;6.93;;;2.60;;
63699;SDS011;49845;47.130;142.766;2023-07-20T09:27:11;5.67;;;2.70;;
63699;SDS011;49845;47.130;142.766;2023-07-20T09:29:49;14.27;;;3.08;;
63699;SDS011;49845;47.130;142.766;2023-07-20T09:32:32;7.93;;;3.07;;
63699;SDS011;49845;47.130;142.766;2023-07-20T09:35:21;7.47;;;3.75;;
63699;SDS011;49845;47.130;142.766;2023-07-20T09:38:04;10.10;;;3.57;;
63699;SDS011;49845;47.130;142.766;2023-07-20T09:40:41;7.90;;;3.93;;
63699;SDS011;49845;47.130;142.766;2023-07-20T09:43:19;8.93;;;3.40;;
63699;SDS011;49845;47.130;142.766;2023-07-20T09:46:06;9.90;;;4.17;;
63699;SDS011;49845;47.130;142.766;2023-07-20T09:49:01;11.40;;;3.93;;
63699;SDS011;49845;47.130;142.766;2023-07-20T09:51:34;5.83;;;4.33;;
63699;SDS011;49845;47.130;142.766;2023-07-20T09:54:10;14.27;;;4.13;;
63699;SDS011;49845;47.130;142.766;2023-07-20T10:00:30;14.07;;;4.00;;
63699;SDS011;49845;47.130;142.766;2023-07-20T10:03:32;15.00;;;4.80;;
63699;SDS011;49845;47.130;142.766;2023-07-20T10:06:34;6.97;;;3.63;;
63699;SDS011;49845;47.130;142.766;2023-07-20T10:09:45;12.07;;;4.03;;
63699;SDS011;49845;47.130;142.766;2023-07-20T10:12:24;11.80;;;4.10;;
63699;SDS011;49845;47.130;142.766;2023-07-20T10:15:11;10.30;;;3.97;;
63699;SDS011;49845;47.130;142.766;2023-07-20T10:17:59;9.75;;;4.68;;
63699;SDS011;49845;47.130;142.766;2023-07-20T10:20:39;8.97;;;5.33;;
63699;SDS011;49845;47.130;142.766;2023-07-20T10:23:15;12.07;;;5.33;;
63699;SDS011;49845;47.130;142.766;2023-07-20T10:25:56;10.23;;;5.27;;
63699;SDS011;49845;47.130;142.766;2023-07-20T10:28:32;9.70;;;5.53;;
63699;SDS011;49845;47.130;142.766;2023-07-20T10:31:04;10.17;;;5.30;;
63699;SDS011;49845;47.130;142.766;2023-07-20T10:33:40;10.90;;;6.00;;
63699;SDS011;49845;47.130;142.766;2023-07-20T10:36:12;8.40;;;5.67;;
63699;SDS011;49845;47.130;142.766;2023-07-20T10:38:52;14.77;;;6.00;;
63699;SDS011;49845;47.130;142.766;2023-07-20T10:41:27;10.90;;;6.47;;
63699;SDS011;49845;47.130;142.766;2023-07-20T10:44:00;10.70;;;6.53;;
63699;SDS011;49845;47.130;142.766;2023-07-20T10:46:36;13.47;;;7.10;;
63699;SDS011;49845;47.130;142.766;2023-07-20T10:49:16;14.97;;;8.07;;
63699;SDS011;49845;47.130;142.766;2023-07-20T10:51:57;14.00;;;7.77;;
63699;SDS011;49845;47.130;142.766;2023-07-20T10:57:29;14.97;;;9.00;;
63699;SDS011;49845;47.130;142.766;2023-07-20T11:00:11;21.20;;;9.33;;
63699;SDS011;49845;47.130;142.766;2023-07-20T11:02:44;15.83;;;9.63;;
63699;SDS011;49845;47.130;142.766;2023-07-20T11:08:12;19.10;;;11.23;;
63699;SDS011;49845;47.130;142.766;2023-07-20T11:11:21;14.23;;;8.63;;
63699;SDS011;49845;47.130;142.766;2023-07-20T11:13:54;13.47;;;8.37;;
63699;SDS011;49845;47.130;142.766;2023-07-20T11:16:37;14.37;;;8.27;;
63699;SDS011;49845;47.130;142.766;2023-07-20T11:21:54;15.27;;;9.00;;
63699;SDS011;49845;47.130;142.766;2023-07-20T11:24:31;17.88;;;8.40;;
63699;SDS011;49845;47.130;142.766;2023-07-20T11:27:04;17.90;;;9.57;;
63699;SDS011;49845;47.130;142.766;2023-07-20T11:29:37;16.67;;;8.00;;
63699;SDS011;49845;47.130;142.766;2023-07-20T11:32:19;14.77;;;8.23;;
63699;SDS011;49845;47.130;142.766;2023-07-20T11:34:53;14.10;;;8.00;;
63699;SDS011;49845;47.130;142.766;2023-07-20T11:37:26;12.20;;;8.03;;
63699;SDS011;49845;47.130;142.766;2023-07-20T11:39:59;15.57;;;7.97;;
63699;SDS011;49845;47.130;142.766;2023-07-20T11:42:31;13.07;;;7.53;;
63699;SDS011;49845;47.130;142.766;2023-07-20T11:45:06;11.73;;;7.50;;
63699;SDS011;49845;47.130;142.766;2023-07-20T11:47:42;11.73;;;7.03;;
63699;SDS011;49845;47.130;142.766;2023-07-20T11:50:14;11.27;;;6.77;;
63699;SDS011;49845;47.130;142.766;2023-07-20T11:52:48;11.87;;;6.50;;
63699;SDS011;49845;47.130;142.766;2023-07-20T11:55:20;12.50;;;6.40;;
63699;SDS011;49845;47.130;142.766;2023-07-20T11:58:01;12.80;;;7.07;;
63699;SDS011;49845;47.130;142.766;2023-07-20T12:00:34;18.03;;;6.73;;
63699;SDS011;49845;47.130;142.766;2023-07-20T12:03:07;9.93;;;6.53;;
63699;SDS011;49845;47.130;142.766;2023-07-20T12:05:42;9.40;;;6.33;;
63699;SDS011;49845;47.130;142.766;2023-07-20T12:10:54;27.87;;;7.53;;
63699;SDS011;49845;47.130;142.766;2023-07-20T12:13:35;11.97;;;7.17;;
63699;SDS011;49845;47.130;142.766;2023-07-20T12:16:14;15.00;;;8.30;;
63699;SDS011;49845;47.130;142.766;2023-07-20T12:18:49;13.00;;;9.17;;
63699;SDS011;49845;47.130;142.766;2023-07-20T12:21:31;17.87;;;10.90;;
63699;SDS011;49845;47.130;142.766;2023-07-20T12:24:07;18.20;;;11.53;;
63699;SDS011;49845;47.130;142.766;2023-07-20T12:26:39;22.63;;;10.83;;
63699;SDS011;49845;47.130;142.766;2023-07-20T12:29:12;24.73;;;11.13;;
63699;SDS011;49845;47.130;142.766;2023-07-20T12:31:44;16.40;;;9.50;;
63699;SDS011;49845;47.130;142.766;2023-07-20T12:34:16;19.33;;;8.97;;
63699;SDS011;49845;47.130;142.766;2023-07-20T12:36:48;11.97;;;7.97;;
63699;SDS011;49845;47.130;142.766;2023-07-20T12:39:21;23.40;;;8.03;;
63699;SDS011;49845;47.130;142.766;2023-07-20T12:41:53;21.70;;;7.80;;
63699;SDS011;49845;47.130;142.766;2023-07-20T12:44:25;16.87;;;7.30;;
63699;SDS011;49845;47.130;142.766;2023-07-20T12:46:57;21.17;;;8.40;;
63699;SDS011;49845;47.130;142.766;2023-07-20T12:49:29;12.27;;;8.00;;
63699;SDS011;49845;47.130;142.766;2023-07-20T12:52:00;17.70;;;8.23;;
63699;SDS011;49845;47.130;142.766;2023-07-20T12:54:34;14.10;;;8.53;;
63699;SDS011;49845;47.130;142.766;2023-07-20T12:57:06;15.10;;;9.43;;
63699;SDS011;49845;47.130;142.766;2023-07-20T12:59:39;14.63;;;8.23;;
63699;SDS011;49845;47.130;142.766;2023-07-20T13:02:11;18.73;;;9.23;;
63699;SDS011;49845;47.130;142.766;2023-07-20T13:04:43;13.30;;;7.87;;
63699;SDS011;49845;47.130;142.766;2023-07-20T13:07:15;14.37;;;7.50;;
63699;SDS011;49845;47.130;142.766;2023-07-20T13:10:04;21.03;;;9.50;;
63699;SDS011;49845;47.130;142.766;2023-07-20T13:12:37;33.30;;;7.93;;
63699;SDS011;49845;47.130;142.766;2023-07-20T13:15:12;20.70;;;7.53;;
63699;SDS011;49845;47.130;142.766;2023-07-20T13:17:45;20.53;;;7.80;;
63699;SDS011;49845;47.130;142.766;2023-07-20T13:20:19;18.83;;;8.27;;
63699;SDS011;49845;47.130;142.766;2023-07-20T13:22:50;11.57;;;7.73;;
63699;SDS011;49845;47.130;142.766;2023-07-20T13:25:24;27.47;;;8.50;;
63699;SDS011;49845;47.130;142.766;2023-07-20T13:27:57;17.03;;;7.57;;
63699;SDS011;49845;47.130;142.766;2023-07-20T13:30:28;15.47;;;9.23;;
63699;SDS011;49845;47.130;142.766;2023-07-20T13:33:00;17.57;;;8.40;;
63699;SDS011;49845;47.130;142.766;2023-07-20T13:35:33;17.63;;;9.03;;
63699;SDS011;49845;47.130;142.766;2023-07-20T13:38:08;17.40;;;10.10;;
63699;SDS011;49845;47.130;142.766;2023-07-20T13:40:41;27.93;;;10.67;;
63699;SDS011;49845;47.130;142.766;2023-07-20T13:43:14;15.07;;;8.83;;
63699;SDS011;49845;47.130;142.766;2023-07-20T13:45:45;16.50;;;9.77;;
63699;SDS011;49845;47.130;142.766;2023-07-20T13:48:17;15.77;;;10.40;;
63699;SDS011;49845;47.130;142.766;2023-07-20T13:50:54;24.77;;;10.43;;
63699;SDS011;49845;47.130;142.766;2023-07-20T13:53:27;20.87;;;10.10;;
63699;SDS011;49845;47.130;142.766;2023-07-20T13:56:03;18.07;;;11.00;;
63699;SDS011;49845;47.130;142.766;2023-07-20T13:58:38;17.57;;;9.83;;
63699;SDS011;49845;47.130;142.766;2023-07-20T14:01:10;15.80;;;10.37;;
63699;SDS011;49845;47.130;142.766;2023-07-20T14:03:56;20.23;;;10.07;;
63699;SDS011;49845;47.130;142.766;2023-07-20T14:06:31;12.83;;;8.67;;
63699;SDS011;49845;47.130;142.766;2023-07-20T14:09:04;17.53;;;10.97;;
63699;SDS011;49845;47.130;142.766;2023-07-20T14:11:37;25.30;;;12.00;;
63699;SDS011;49845;47.130;142.766;2023-07-20T14:14:12;24.23;;;11.17;;
63699;SDS011;49845;47.130;142.766;2023-07-20T14:16:44;23.57;;;11.50;;
63699;SDS011;49845;47.130;142.766;2023-07-20T14:19:16;21.77;;;11.23;;
63699;SDS011;49845;47.130;142.766;2023-07-20T14:21:48;21.13;;;11.10;;
63699;SDS011;49845;47.130;142.766;2023-07-20T14:24:20;22.70;;;11.87;;
63699;SDS011;49845;47.130;142.766;2023-07-20T14:26:53;18.57;;;11.53;;
63699;SDS011;49845;47.130;142.766;2023-07-20T14:29:25;23.23;;;12.33;;
63699;SDS011;49845;47.130;142.766;2023-07-20T14:31:59;20.70;;;11.90;;
63699;SDS011;49845;47.130;142.766;2023-07-20T14:34:32;23.27;;;9.63;;
63699;SDS011;49845;47.130;142.766;2023-07-20T14:37:06;16.10;;;10.23;;
63699;SDS011;49845;47.130;142.766;2023-07-20T14:39:40;23.20;;;10.20;;
63699;SDS011;49845;47.130;142.766;2023-07-20T14:42:14;16.27;;;9.30;;
63699;SDS011;49845;47.130;142.766;2023-07-20T14:44:47;27.00;;;9.60;;
63699;SDS011;49845;47.130;142.766;2023-07-20T14:47:18;18.67;;;9.07;;
63699;SDS011;49845;47.130;142.766;2023-07-20T14:49:50;13.80;;;8.57;;
63699;SDS011;49845;47.130;142.766;2023-07-20T14:52:22;17.97;;;7.43;;
63699;SDS011;49845;47.130;142.766;2023-07-20T14:54:55;21.73;;;7.30;;
63699;SDS011;49845;47.130;142.766;2023-07-20T14:57:29;13.03;;;6.53;;
63699;SDS011;49845;47.130;142.766;2023-07-20T15:00:00;19.00;;;6.80;;
63699;SDS011;49845;47.130;142.766;2023-07-20T15:02:35;11.50;;;6.67;;
63699;SDS011;49845;47.130;142.766;2023-07-20T15:05:07;13.80;;;6.70;;